createdAt,value
2023-06-14T00:00:20.137Z,1006.97
2023-06-14T00:00:50.137Z,1006.97
2023-06-14T00:01:20.123Z,1006.96
2023-06-14T00:01:50.142Z,1006.96
2023-06-14T00:02:20.205Z,1006.94
2023-06-14T00:02:50.278Z,1006.94
2023-06-14T00:03:20.157Z,1006.94
2023-06-14T00:03:50.127Z,1006.94
2023-06-14T00:04:20.104Z,1006.95
2023-06-14T00:04:50.118Z,1006.95
2023-06-14T00:05:20.077Z,1006.94
2023-06-14T00:05:50.085Z,1006.93
2023-06-14T00:06:20.072Z,1006.94
2023-06-14T00:06:50.065Z,1006.95
2023-06-14T00:07:20.066Z,1006.96
2023-06-14T00:07:50.067Z,1006.96
2023-06-14T00:08:20.090Z,1006.96
2023-06-14T00:08:50.173Z,1006.96
2023-06-14T00:09:20.293Z,1006.96
2023-06-14T00:09:50.032Z,1006.97
2023-06-14T00:10:20.132Z,1006.98
2023-06-14T00:10:50.031Z,1006.98
2023-06-14T00:11:20.009Z,1006.99
2023-06-14T00:11:50.009Z,1007.00
2023-06-14T00:12:20.040Z,1007.01
2023-06-14T00:12:50.003Z,1007.02
2023-06-14T00:13:20.005Z,1007.03
2023-06-14T00:13:50.001Z,1007.03
2023-06-14T00:14:20.003Z,1007.03
2023-06-14T00:14:51.034Z,1007.05
2023-06-14T00:15:19.977Z,1007.05
2023-06-14T00:15:49.969Z,1007.05
2023-06-14T00:16:19.995Z,1007.06
2023-06-14T00:16:49.990Z,1007.07
2023-06-14T00:17:19.978Z,1007.06
2023-06-14T00:17:49.983Z,1007.07
2023-06-14T00:18:19.935Z,1007.08
2023-06-14T00:18:49.958Z,1007.09
2023-06-14T00:19:19.937Z,1007.08
2023-06-14T00:19:50.023Z,1007.09
2023-06-14T00:20:20.125Z,1007.10
2023-06-14T00:20:49.941Z,1007.11
2023-06-14T00:21:19.904Z,1007.10
2023-06-14T00:21:49.910Z,1007.10
2023-06-14T00:22:19.911Z,1007.09
2023-06-14T00:22:50.023Z,1007.09
2023-06-14T00:23:20.074Z,1007.10
2023-06-14T00:23:49.921Z,1007.10
2023-06-14T00:24:19.946Z,1007.10
2023-06-14T00:24:49.909Z,1007.10
2023-06-14T00:25:28.831Z,1007.10
2023-06-14T00:25:49.854Z,1007.11
2023-06-14T00:26:19.884Z,1007.11
2023-06-14T00:26:49.882Z,1007.10
2023-06-14T00:27:19.842Z,1007.10
2023-06-14T00:27:49.835Z,1007.10
2023-06-14T00:28:19.845Z,1007.09
2023-06-14T00:28:49.834Z,1007.09
2023-06-14T00:29:19.821Z,1007.09
2023-06-14T00:29:49.855Z,1007.10
2023-06-14T00:30:19.843Z,1007.10
2023-06-14T00:30:49.801Z,1007.10
2023-06-14T00:31:19.812Z,1007.09
2023-06-14T00:31:49.817Z,1007.10
2023-06-14T00:32:19.874Z,1007.10
2023-06-14T00:32:49.955Z,1007.11
2023-06-14T00:33:19.814Z,1007.11
2023-06-14T00:33:49.822Z,1007.11
2023-06-14T00:34:19.787Z,1007.11
2023-06-14T00:34:49.757Z,1007.10
2023-06-14T00:35:19.818Z,1007.10
2023-06-14T00:35:49.760Z,1007.10
2023-06-14T00:36:19.745Z,1007.10
2023-06-14T00:36:49.862Z,1007.10
2023-06-14T00:37:19.949Z,1007.09
2023-06-14T00:37:49.740Z,1007.08
2023-06-14T00:38:19.733Z,1007.08
2023-06-14T00:38:49.719Z,1007.08
2023-06-14T00:39:19.780Z,1007.07
2023-06-14T00:39:49.725Z,1007.06
2023-06-14T00:40:19.745Z,1007.05
2023-06-14T00:40:49.759Z,1007.05
2023-06-14T00:41:19.706Z,1007.04
2023-06-14T00:41:49.684Z,1007.04
2023-06-14T00:42:19.682Z,1007.04
2023-06-14T00:42:49.676Z,1007.04
2023-06-14T00:43:19.671Z,1007.05
2023-06-14T00:43:49.672Z,1007.05
2023-06-14T00:44:19.693Z,1007.06
2023-06-14T00:44:49.711Z,1007.06
2023-06-14T00:45:19.657Z,1007.06
2023-06-14T00:45:49.662Z,1007.07
2023-06-14T00:46:19.668Z,1007.07
2023-06-14T00:46:49.737Z,1007.08
2023-06-14T00:47:19.637Z,1007.08
2023-06-14T00:47:49.683Z,1007.08
2023-06-14T00:48:19.636Z,1007.09
2023-06-14T00:48:49.622Z,1007.09
2023-06-14T00:49:19.605Z,1007.09
2023-06-14T00:49:49.608Z,1007.09
2023-06-14T00:50:19.783Z,1007.10
2023-06-14T00:50:49.740Z,1007.10
2023-06-14T00:51:19.804Z,1007.10
2023-06-14T00:51:49.597Z,1007.11
2023-06-14T00:52:19.575Z,1007.11
2023-06-14T00:52:49.586Z,1007.10
2023-06-14T00:53:19.581Z,1007.11
2023-06-14T00:53:49.559Z,1007.10
2023-06-14T00:54:19.566Z,1007.10
2023-06-14T00:54:49.590Z,1007.10
2023-06-14T00:55:19.703Z,1007.10
2023-06-14T00:55:49.551Z,1007.11
2023-06-14T00:56:19.547Z,1007.12
2023-06-14T00:56:49.529Z,1007.12
2023-06-14T00:57:19.531Z,1007.13
2023-06-14T00:57:49.536Z,1007.13
2023-06-14T00:58:19.551Z,1007.12
2023-06-14T00:58:49.511Z,1007.11
2023-06-14T00:59:19.507Z,1007.10
2023-06-14T00:59:49.541Z,1007.11
2023-06-14T01:00:19.555Z,1007.11
2023-06-14T01:00:49.508Z,1007.11
2023-06-14T01:01:19.499Z,1007.12
2023-06-14T01:01:49.509Z,1007.12
2023-06-14T01:02:19.474Z,1007.12
2023-06-14T01:02:49.559Z,1007.13
2023-06-14T01:03:19.553Z,1007.12
2023-06-14T01:03:49.558Z,1007.13
2023-06-14T01:04:19.475Z,1007.14
2023-06-14T01:04:49.616Z,1007.15
2023-06-14T01:05:19.652Z,1007.16
2023-06-14T01:05:49.449Z,1007.16
2023-06-14T01:06:19.442Z,1007.16
2023-06-14T01:06:49.443Z,1007.16
2023-06-14T01:07:19.443Z,1007.17
2023-06-14T01:07:49.427Z,1007.17
2023-06-14T01:08:19.414Z,1007.18
2023-06-14T01:08:49.399Z,1007.19
2023-06-14T01:09:19.407Z,1007.20
2023-06-14T01:09:49.452Z,1007.20
2023-06-14T01:10:19.431Z,1007.20
2023-06-14T01:10:49.388Z,1007.19
2023-06-14T01:11:19.378Z,1007.19
2023-06-14T01:11:49.410Z,1007.18
2023-06-14T01:12:19.413Z,1007.19
2023-06-14T01:12:49.375Z,1007.18
2023-06-14T01:13:19.363Z,1007.19
2023-06-14T01:13:49.390Z,1007.19
2023-06-14T01:14:19.353Z,1007.19
2023-06-14T01:14:49.461Z,1007.19
2023-06-14T01:15:20.113Z,1007.19
2023-06-14T01:15:49.326Z,1007.19
2023-06-14T01:16:19.340Z,1007.20
2023-06-14T01:16:49.382Z,1007.19
2023-06-14T01:17:19.314Z,1007.20
2023-06-14T01:17:49.361Z,1007.19
2023-06-14T01:18:19.459Z,1007.20
2023-06-14T01:18:49.461Z,1007.20
2023-06-14T01:19:19.476Z,1007.20
2023-06-14T01:19:49.334Z,1007.20
2023-06-14T01:20:19.314Z,1007.20
2023-06-14T01:20:49.276Z,1007.20
2023-06-14T01:21:19.284Z,1007.20
2023-06-14T01:21:49.286Z,1007.20
2023-06-14T01:22:19.287Z,1007.20
2023-06-14T01:22:49.269Z,1007.20
2023-06-14T01:23:19.272Z,1007.21
2023-06-14T01:23:49.255Z,1007.21
2023-06-14T01:24:19.293Z,1007.22
2023-06-14T01:24:49.235Z,1007.23
2023-06-14T01:25:19.269Z,1007.23
2023-06-14T01:25:49.236Z,1007.24
2023-06-14T01:26:19.219Z,1007.24
2023-06-14T01:26:49.206Z,1007.24
2023-06-14T01:27:19.207Z,1007.24
2023-06-14T01:27:49.228Z,1007.24
2023-06-14T01:28:19.216Z,1007.25
2023-06-14T01:28:49.196Z,1007.25
2023-06-14T01:29:19.196Z,1007.24
2023-06-14T01:29:49.185Z,1007.25
2023-06-14T01:30:19.189Z,1007.25
2023-06-14T01:30:49.208Z,1007.25
2023-06-14T01:31:19.177Z,1007.24
2023-06-14T01:31:49.179Z,1007.24
2023-06-14T01:32:19.177Z,1007.24
2023-06-14T01:32:49.323Z,1007.23
2023-06-14T01:33:19.353Z,1007.23
2023-06-14T01:33:49.150Z,1007.22
2023-06-14T01:34:19.145Z,1007.21
2023-06-14T01:34:49.171Z,1007.21
2023-06-14T01:35:19.353Z,1007.20
2023-06-14T01:35:49.233Z,1007.20
2023-06-14T01:36:19.123Z,1007.19
2023-06-14T01:36:49.142Z,1007.18
2023-06-14T01:37:19.118Z,1007.18
2023-06-14T01:37:49.100Z,1007.18
2023-06-14T01:38:19.084Z,1007.17
2023-06-14T01:38:49.092Z,1007.17
2023-06-14T01:39:19.113Z,1007.17
2023-06-14T01:39:49.070Z,1007.17
2023-06-14T01:40:19.119Z,1007.17
2023-06-14T01:40:49.596Z,1007.18
2023-06-14T01:41:19.070Z,1007.18
2023-06-14T01:41:49.088Z,1007.17
2023-06-14T01:42:19.057Z,1007.17
2023-06-14T01:42:49.059Z,1007.17
2023-06-14T01:43:19.036Z,1007.17
2023-06-14T01:43:49.053Z,1007.17
2023-06-14T01:44:19.041Z,1007.17
2023-06-14T01:44:49.081Z,1007.17
2023-06-14T01:45:19.017Z,1007.17
2023-06-14T01:45:49.077Z,1007.18
2023-06-14T01:46:19.034Z,1007.18
2023-06-14T01:46:49.171Z,1007.19
2023-06-14T01:47:19.205Z,1007.19
2023-06-14T01:47:49.032Z,1007.19
2023-06-14T01:48:18.995Z,1007.19
2023-06-14T01:48:49.109Z,1007.20
2023-06-14T01:49:18.977Z,1007.20
2023-06-14T01:49:49.075Z,1007.21
2023-06-14T01:50:18.975Z,1007.22
2023-06-14T01:50:48.953Z,1007.22
2023-06-14T01:51:18.964Z,1007.22
2023-06-14T01:51:48.948Z,1007.23
2023-06-14T01:52:19.035Z,1007.22
2023-06-14T01:52:48.940Z,1007.22
2023-06-14T01:53:18.936Z,1007.22
2023-06-14T01:53:48.927Z,1007.22
2023-06-14T01:54:18.951Z,1007.22
2023-06-14T01:54:48.943Z,1007.22
2023-06-14T01:55:18.960Z,1007.23
2023-06-14T01:55:48.907Z,1007.24
2023-06-14T01:56:18.968Z,1007.24
2023-06-14T01:56:48.912Z,1007.24
2023-06-14T01:57:18.906Z,1007.25
2023-06-14T01:57:48.917Z,1007.25
2023-06-14T01:58:18.885Z,1007.25
2023-06-14T01:58:48.909Z,1007.25
2023-06-14T01:59:18.884Z,1007.24
2023-06-14T01:59:48.872Z,1007.23
2023-06-14T02:00:18.869Z,1007.23
2023-06-14T02:00:48.977Z,1007.22
2023-06-14T02:01:19.209Z,1007.23
2023-06-14T02:01:48.960Z,1007.22
2023-06-14T02:02:18.846Z,1007.22
2023-06-14T02:02:48.860Z,1007.21
2023-06-14T02:03:18.847Z,1007.22
2023-06-14T02:03:48.843Z,1007.23
2023-06-14T02:04:18.841Z,1007.22
2023-06-14T02:04:48.841Z,1007.23
2023-06-14T02:05:18.844Z,1007.23
2023-06-14T02:05:48.904Z,1007.24
2023-06-14T02:06:18.807Z,1007.22
2023-06-14T02:06:48.852Z,1007.22
2023-06-14T02:07:18.852Z,1007.23
2023-06-14T02:07:48.775Z,1007.23
2023-06-14T02:08:18.777Z,1007.22
2023-06-14T02:08:48.811Z,1007.23
2023-06-14T02:09:18.778Z,1007.22
2023-06-14T02:09:48.762Z,1007.22
2023-06-14T02:10:18.757Z,1007.22
2023-06-14T02:10:48.772Z,1007.21
2023-06-14T02:11:18.779Z,1007.21
2023-06-14T02:11:48.737Z,1007.21
2023-06-14T02:12:18.909Z,1007.21
2023-06-14T02:12:48.746Z,1007.21
2023-06-14T02:13:18.769Z,1007.23
2023-06-14T02:13:48.731Z,1007.24
2023-06-14T02:14:18.706Z,1007.24
2023-06-14T02:14:48.820Z,1007.23
2023-06-14T02:15:18.920Z,1007.23
2023-06-14T02:15:48.730Z,1007.23
2023-06-14T02:16:18.890Z,1007.23
2023-06-14T02:16:48.693Z,1007.23
2023-06-14T02:17:18.778Z,1007.23
2023-06-14T02:17:48.739Z,1007.23
2023-06-14T02:18:18.703Z,1007.23
2023-06-14T02:18:48.620Z,1007.22
2023-06-14T02:19:18.714Z,1007.22
2023-06-14T02:19:48.665Z,1007.22
2023-06-14T02:20:18.841Z,1007.22
2023-06-14T02:20:48.654Z,1007.21
2023-06-14T02:21:18.611Z,1007.21
2023-06-14T02:21:48.597Z,1007.21
2023-06-14T02:22:18.629Z,1007.20
2023-06-14T02:22:48.583Z,1007.20
2023-06-14T02:23:18.565Z,1007.20
2023-06-14T02:23:48.597Z,1007.20
2023-06-14T02:24:18.590Z,1007.20
2023-06-14T02:24:51.227Z,1007.21
2023-06-14T02:25:18.580Z,1007.21
2023-06-14T02:25:48.596Z,1007.20
2023-06-14T02:26:18.583Z,1007.20
2023-06-14T02:26:48.623Z,1007.20
2023-06-14T02:27:18.631Z,1007.20
2023-06-14T02:27:48.548Z,1007.20
2023-06-14T02:28:18.516Z,1007.20
2023-06-14T02:28:48.659Z,1007.21
2023-06-14T02:29:18.697Z,1007.21
2023-06-14T02:29:48.520Z,1007.21
2023-06-14T02:30:18.730Z,1007.21
2023-06-14T02:30:48.493Z,1007.21
2023-06-14T02:31:18.536Z,1007.20
2023-06-14T02:31:48.589Z,1007.20
2023-06-14T02:32:18.545Z,1007.20
2023-06-14T02:32:48.548Z,1007.21
2023-06-14T02:33:18.463Z,1007.21
2023-06-14T02:33:48.454Z,1007.21
2023-06-14T02:34:18.452Z,1007.22
2023-06-14T02:34:48.440Z,1007.22
2023-06-14T02:35:19.153Z,1007.22
2023-06-14T02:35:48.435Z,1007.23
2023-06-14T02:36:18.422Z,1007.23
2023-06-14T02:36:48.434Z,1007.24
2023-06-14T02:37:18.449Z,1007.24
2023-06-14T02:37:48.420Z,1007.25
2023-06-14T02:38:18.432Z,1007.25
2023-06-14T02:38:48.402Z,1007.26
2023-06-14T02:39:18.420Z,1007.26
2023-06-14T02:39:48.405Z,1007.26
2023-06-14T02:40:18.588Z,1007.27
2023-06-14T02:40:48.400Z,1007.27
2023-06-14T02:41:18.374Z,1007.27
2023-06-14T02:41:48.395Z,1007.28
2023-06-14T02:42:18.367Z,1007.29
2023-06-14T02:42:48.496Z,1007.30
2023-06-14T02:43:18.582Z,1007.31
2023-06-14T02:43:48.362Z,1007.31
2023-06-14T02:44:18.362Z,1007.32
2023-06-14T02:44:48.345Z,1007.32
2023-06-14T02:45:18.377Z,1007.33
2023-06-14T02:45:48.329Z,1007.34
2023-06-14T02:46:18.328Z,1007.35
2023-06-14T02:46:48.334Z,1007.36
2023-06-14T02:47:18.385Z,1007.37
2023-06-14T02:47:48.466Z,1007.38
2023-06-14T02:48:18.414Z,1007.39
2023-06-14T02:48:48.330Z,1007.40
2023-06-14T02:49:18.290Z,1007.40
2023-06-14T02:49:48.294Z,1007.41
2023-06-14T02:50:18.310Z,1007.42
2023-06-14T02:50:48.316Z,1007.42
2023-06-14T02:51:18.276Z,1007.43
2023-06-14T02:51:48.265Z,1007.45
2023-06-14T02:52:18.313Z,1007.46
2023-06-14T02:52:48.258Z,1007.47
2023-06-14T02:53:18.270Z,1007.48
2023-06-14T02:53:48.243Z,1007.49
2023-06-14T02:54:18.244Z,1007.49
2023-06-14T02:54:48.251Z,1007.50
2023-06-14T02:55:18.227Z,1007.51
2023-06-14T02:55:48.227Z,1007.51
2023-06-14T02:56:18.219Z,1007.51
2023-06-14T02:56:48.341Z,1007.51
2023-06-14T02:57:18.446Z,1007.51
2023-06-14T02:57:48.201Z,1007.51
2023-06-14T02:58:18.200Z,1007.51
2023-06-14T02:58:48.193Z,1007.51
2023-06-14T02:59:18.190Z,1007.51
2023-06-14T02:59:48.176Z,1007.52
2023-06-14T03:00:18.568Z,1007.52
2023-06-14T03:00:48.198Z,1007.52
2023-06-14T03:01:18.330Z,1007.52
2023-06-14T03:01:48.161Z,1007.52
2023-06-14T03:02:18.159Z,1007.52
2023-06-14T03:02:48.287Z,1007.52
2023-06-14T03:03:18.192Z,1007.52
2023-06-14T03:03:48.260Z,1007.52
2023-06-14T03:04:18.131Z,1007.53
2023-06-14T03:04:48.123Z,1007.54
2023-06-14T03:05:18.112Z,1007.55
2023-06-14T03:05:48.119Z,1007.55
2023-06-14T03:06:18.145Z,1007.55
2023-06-14T03:06:48.114Z,1007.55
2023-06-14T03:07:18.099Z,1007.56
2023-06-14T03:07:48.145Z,1007.56
2023-06-14T03:08:18.167Z,1007.56
2023-06-14T03:08:48.076Z,1007.56
2023-06-14T03:09:18.077Z,1007.56
2023-06-14T03:09:48.074Z,1007.56
2023-06-14T03:10:18.140Z,1007.57
2023-06-14T03:10:48.199Z,1007.56
2023-06-14T03:11:18.270Z,1007.56
2023-06-14T03:11:48.047Z,1007.56
2023-06-14T03:12:18.040Z,1007.56
2023-06-14T03:12:48.079Z,1007.57
2023-06-14T03:13:18.039Z,1007.57
2023-06-14T03:13:48.036Z,1007.57
2023-06-14T03:14:18.016Z,1007.58
2023-06-14T03:14:48.128Z,1007.58
2023-06-14T03:15:18.014Z,1007.59
2023-06-14T03:15:47.998Z,1007.60
2023-06-14T03:16:18.020Z,1007.60
2023-06-14T03:16:48.043Z,1007.60
2023-06-14T03:17:17.982Z,1007.60
2023-06-14T03:17:48.011Z,1007.61
2023-06-14T03:18:18.018Z,1007.62
2023-06-14T03:18:47.976Z,1007.62
2023-06-14T03:19:18.012Z,1007.63
2023-06-14T03:19:47.986Z,1007.64
2023-06-14T03:20:18.241Z,1007.65
2023-06-14T03:20:47.959Z,1007.66
2023-06-14T03:21:17.948Z,1007.68
2023-06-14T03:21:47.942Z,1007.68
2023-06-14T03:22:17.951Z,1007.69
2023-06-14T03:22:47.959Z,1007.71
2023-06-14T03:23:17.916Z,1007.71
2023-06-14T03:23:47.955Z,1007.73
2023-06-14T03:24:17.939Z,1007.73
2023-06-14T03:24:48.118Z,1007.73
2023-06-14T03:25:18.092Z,1007.73
2023-06-14T03:25:47.898Z,1007.74
2023-06-14T03:26:17.922Z,1007.74
2023-06-14T03:26:47.902Z,1007.73
2023-06-14T03:27:17.878Z,1007.73
2023-06-14T03:27:47.903Z,1007.73
2023-06-14T03:28:17.867Z,1007.73
2023-06-14T03:28:47.867Z,1007.72
2023-06-14T03:29:17.862Z,1007.72
2023-06-14T03:29:47.882Z,1007.71
2023-06-14T03:30:18.085Z,1007.71
2023-06-14T03:30:47.888Z,1007.71
2023-06-14T03:31:17.851Z,1007.72
2023-06-14T03:31:47.832Z,1007.73
2023-06-14T03:32:17.819Z,1007.73
2023-06-14T03:32:47.842Z,1007.74
2023-06-14T03:33:17.875Z,1007.75
2023-06-14T03:33:47.808Z,1007.76
2023-06-14T03:34:17.797Z,1007.76
2023-06-14T03:34:47.838Z,1007.77
2023-06-14T03:35:17.798Z,1007.78
2023-06-14T03:35:47.788Z,1007.79
2023-06-14T03:36:17.789Z,1007.80
2023-06-14T03:36:47.773Z,1007.81
2023-06-14T03:37:17.782Z,1007.81
2023-06-14T03:37:47.752Z,1007.82
2023-06-14T03:38:17.753Z,1007.82
2023-06-14T03:38:47.904Z,1007.82
2023-06-14T03:39:17.933Z,1007.82
2023-06-14T03:39:47.831Z,1007.81
2023-06-14T03:40:17.861Z,1007.82
2023-06-14T03:40:47.763Z,1007.83
2023-06-14T03:41:17.743Z,1007.84
2023-06-14T03:41:47.724Z,1007.85
2023-06-14T03:42:17.710Z,1007.85
2023-06-14T03:42:47.705Z,1007.86
2023-06-14T03:43:17.696Z,1007.87
2023-06-14T03:43:47.734Z,1007.88
2023-06-14T03:44:17.706Z,1007.88
2023-06-14T03:44:47.692Z,1007.90
2023-06-14T03:45:17.694Z,1007.90
2023-06-14T03:45:47.681Z,1007.91
2023-06-14T03:46:17.680Z,1007.91
2023-06-14T03:46:47.716Z,1007.91
2023-06-14T03:47:17.716Z,1007.92
2023-06-14T03:47:47.729Z,1007.92
2023-06-14T03:48:17.692Z,1007.93
2023-06-14T03:48:47.686Z,1007.93
2023-06-14T03:49:17.635Z,1007.93
2023-06-14T03:49:47.655Z,1007.93
2023-06-14T03:50:17.990Z,1007.94
2023-06-14T03:50:47.615Z,1007.94
2023-06-14T03:51:17.632Z,1007.96
2023-06-14T03:51:47.623Z,1007.97
2023-06-14T03:52:17.603Z,1007.97
2023-06-14T03:52:47.723Z,1007.98
2023-06-14T03:53:17.787Z,1007.98
2023-06-14T03:55:25.554Z,1008.00
2023-06-14T03:55:59.126Z,1008.00
2023-06-14T03:56:04.530Z,1008.02
2023-06-14T03:56:36.554Z,1008.03
2023-06-14T03:57:04.511Z,1008.03
2023-06-14T03:57:34.499Z,1008.03
2023-06-14T03:58:04.584Z,1008.02
2023-06-14T03:58:34.479Z,1008.02
2023-06-14T03:59:04.507Z,1008.02
2023-06-14T03:59:34.485Z,1008.02
2023-06-14T04:00:04.482Z,1008.02
2023-06-14T04:00:34.489Z,1008.02
2023-06-14T04:01:04.474Z,1008.02
2023-06-14T04:01:34.466Z,1008.03
2023-06-14T04:02:04.447Z,1008.03
2023-06-14T04:02:34.494Z,1008.03
2023-06-14T04:03:04.658Z,1008.04
2023-06-14T04:03:34.588Z,1008.04
2023-06-14T04:04:04.499Z,1008.05
2023-06-14T04:04:34.478Z,1008.05
2023-06-14T04:05:05.004Z,1008.06
2023-06-14T04:05:34.472Z,1008.06
2023-06-14T04:06:04.560Z,1008.06
2023-06-14T04:06:34.394Z,1008.05
2023-06-14T04:07:04.509Z,1008.06
2023-06-14T04:07:34.576Z,1008.06
2023-06-14T04:08:04.389Z,1008.06
2023-06-14T04:08:34.391Z,1008.06
2023-06-14T04:09:04.440Z,1008.05
2023-06-14T04:09:34.390Z,1008.05
2023-06-14T04:10:04.370Z,1008.04
2023-06-14T04:10:34.355Z,1008.04
2023-06-14T04:11:04.357Z,1008.03
2023-06-14T04:11:34.352Z,1008.02
2023-06-14T04:12:04.338Z,1008.02
2023-06-14T04:12:34.346Z,1008.01
2023-06-14T04:13:04.385Z,1008.02
2023-06-14T04:13:34.321Z,1008.01
2023-06-14T04:14:04.357Z,1008.01
2023-06-14T04:14:34.345Z,1008.01
2023-06-14T04:15:15.820Z,1008.01
2023-06-14T04:15:34.397Z,1008.01
2023-06-14T04:16:04.366Z,1008.01
2023-06-14T04:16:34.324Z,1008.01
2023-06-14T04:17:04.402Z,1008.01
2023-06-14T04:17:34.303Z,1008.02
2023-06-14T04:18:04.294Z,1008.02
2023-06-14T04:18:34.294Z,1008.02
2023-06-14T04:19:04.277Z,1008.04
2023-06-14T04:19:34.259Z,1008.05
2023-06-14T04:20:04.243Z,1008.05
2023-06-14T04:20:34.281Z,1008.04
2023-06-14T04:21:04.417Z,1008.05
2023-06-14T04:21:34.432Z,1008.06
2023-06-14T04:22:04.229Z,1008.05
2023-06-14T04:22:34.222Z,1008.06
2023-06-14T04:23:04.248Z,1008.06
2023-06-14T04:23:34.209Z,1008.06
2023-06-14T04:24:04.317Z,1008.06
2023-06-14T04:24:34.225Z,1008.08
2023-06-14T04:25:16.465Z,1008.08
2023-06-14T04:25:34.189Z,1008.09
2023-06-14T04:26:04.190Z,1008.09
2023-06-14T04:26:34.182Z,1008.11
2023-06-14T04:27:04.227Z,1008.11
2023-06-14T04:27:34.172Z,1008.11
2023-06-14T04:28:04.163Z,1008.11
2023-06-14T04:28:34.159Z,1008.11
2023-06-14T04:29:04.159Z,1008.11
2023-06-14T04:29:34.207Z,1008.12
2023-06-14T04:30:04.144Z,1008.12
2023-06-14T04:30:34.150Z,1008.13
2023-06-14T04:31:04.131Z,1008.13
2023-06-14T04:31:34.125Z,1008.14
2023-06-14T04:32:04.117Z,1008.15
2023-06-14T04:32:35.027Z,1008.16
2023-06-14T04:33:04.261Z,1008.17
2023-06-14T04:33:34.259Z,1008.18
2023-06-14T04:34:04.119Z,1008.19
2023-06-14T04:34:34.143Z,1008.20
2023-06-14T04:35:04.211Z,1008.21
2023-06-14T04:35:34.277Z,1008.22
2023-06-14T04:36:04.098Z,1008.22
2023-06-14T04:36:34.075Z,1008.22
2023-06-14T04:37:04.089Z,1008.22
2023-06-14T04:37:34.073Z,1008.23
2023-06-14T04:38:04.065Z,1008.22
2023-06-14T04:38:34.065Z,1008.23
2023-06-14T04:39:04.049Z,1008.24
2023-06-14T04:39:34.100Z,1008.24
2023-06-14T04:40:04.043Z,1008.25
2023-06-14T04:40:34.023Z,1008.25
2023-06-14T04:41:04.026Z,1008.25
2023-06-14T04:41:34.016Z,1008.25
2023-06-14T04:42:04.022Z,1008.26
2023-06-14T04:42:34.007Z,1008.27
2023-06-14T04:43:04.010Z,1008.27
2023-06-14T04:43:33.994Z,1008.27
2023-06-14T04:44:04.006Z,1008.28
2023-06-14T04:44:34.021Z,1008.28
2023-06-14T04:45:03.976Z,1008.28
2023-06-14T04:45:33.979Z,1008.29
2023-06-14T04:46:04.022Z,1008.30
2023-06-14T04:46:33.979Z,1008.31
2023-06-14T04:47:03.958Z,1008.32
2023-06-14T04:47:33.989Z,1008.33
2023-06-14T04:48:03.973Z,1008.33
2023-06-14T04:48:33.944Z,1008.33
2023-06-14T04:49:04.086Z,1008.33
2023-06-14T04:49:34.248Z,1008.33
2023-06-14T04:50:03.923Z,1008.34
2023-06-14T04:50:33.916Z,1008.35
2023-06-14T04:51:03.950Z,1008.35
2023-06-14T04:51:33.910Z,1008.35
2023-06-14T04:52:03.917Z,1008.35
2023-06-14T04:52:33.915Z,1008.36
2023-06-14T04:53:03.931Z,1008.37
2023-06-14T04:53:33.892Z,1008.37
2023-06-14T04:54:03.890Z,1008.37
2023-06-14T04:54:33.901Z,1008.37
2023-06-14T04:55:03.887Z,1008.37
2023-06-14T04:55:33.862Z,1008.37
2023-06-14T04:56:03.888Z,1008.37
2023-06-14T04:56:33.901Z,1008.37
2023-06-14T04:57:03.865Z,1008.38
2023-06-14T04:57:33.845Z,1008.36
2023-06-14T04:58:03.850Z,1008.36
2023-06-14T04:58:33.865Z,1008.36
2023-06-14T04:59:03.847Z,1008.36
2023-06-14T04:59:33.865Z,1008.36
2023-06-14T05:00:03.853Z,1008.36
2023-06-14T05:00:33.816Z,1008.37
2023-06-14T05:01:03.855Z,1008.38
2023-06-14T05:01:33.917Z,1008.39
2023-06-14T05:02:03.845Z,1008.39
2023-06-14T05:02:33.930Z,1008.38
2023-06-14T05:03:04.006Z,1008.39
2023-06-14T05:03:33.995Z,1008.39
2023-06-14T05:04:03.881Z,1008.39
2023-06-14T05:04:33.776Z,1008.40
2023-06-14T05:05:03.796Z,1008.40
2023-06-14T05:05:33.773Z,1008.40
2023-06-14T05:06:03.755Z,1008.41
2023-06-14T05:06:33.806Z,1008.43
2023-06-14T05:07:03.768Z,1008.43
2023-06-14T05:07:33.787Z,1008.44
2023-06-14T05:08:03.738Z,1008.45
2023-06-14T05:08:33.730Z,1008.45
2023-06-14T05:09:03.727Z,1008.47
2023-06-14T05:09:33.721Z,1008.48
2023-06-14T05:10:03.719Z,1008.48
2023-06-14T05:10:33.705Z,1008.50
2023-06-14T05:11:03.708Z,1008.49
2023-06-14T05:11:33.747Z,1008.50
2023-06-14T05:12:03.693Z,1008.51
2023-06-14T05:12:33.688Z,1008.50
2023-06-14T05:13:03.685Z,1008.49
2023-06-14T05:13:33.679Z,1008.50
2023-06-14T05:14:03.668Z,1008.50
2023-06-14T05:14:33.692Z,1008.50
2023-06-14T05:15:03.662Z,1008.50
2023-06-14T05:15:33.669Z,1008.50
2023-06-14T05:16:03.696Z,1008.50
2023-06-14T05:16:33.673Z,1008.51
2023-06-14T05:17:03.797Z,1008.50
2023-06-14T05:17:33.859Z,1008.51
2023-06-14T05:18:03.701Z,1008.51
2023-06-14T05:18:33.622Z,1008.51
2023-06-14T05:19:03.610Z,1008.50
2023-06-14T05:19:33.643Z,1008.50
2023-06-14T05:20:03.603Z,1008.50
2023-06-14T05:20:33.598Z,1008.50
2023-06-14T05:21:03.615Z,1008.50
2023-06-14T05:21:34.949Z,1008.50
2023-06-14T05:22:03.613Z,1008.50
2023-06-14T05:22:33.586Z,1008.51
2023-06-14T05:23:03.592Z,1008.52
2023-06-14T05:23:33.602Z,1008.51
2023-06-14T05:24:04.498Z,1008.51
2023-06-14T05:24:33.566Z,1008.51
2023-06-14T05:25:03.558Z,1008.51
2023-06-14T05:25:33.556Z,1008.51
2023-06-14T05:26:03.537Z,1008.52
2023-06-14T05:26:33.528Z,1008.52
2023-06-14T05:27:04.252Z,1008.52
2023-06-14T05:27:33.563Z,1008.53
2023-06-14T05:28:03.540Z,1008.53
2023-06-14T05:28:33.558Z,1008.54
2023-06-14T05:29:03.520Z,1008.53
2023-06-14T05:29:33.528Z,1008.52
2023-06-14T05:30:03.506Z,1008.53
2023-06-14T05:30:33.519Z,1008.53
2023-06-14T05:31:03.697Z,1008.53
2023-06-14T05:31:33.699Z,1008.54
2023-06-14T05:32:03.558Z,1008.53
2023-06-14T05:32:33.496Z,1008.52
2023-06-14T05:33:03.511Z,1008.52
2023-06-14T05:33:33.600Z,1008.52
2023-06-14T05:34:03.518Z,1008.52
2023-06-14T05:34:33.455Z,1008.52
2023-06-14T05:35:03.462Z,1008.51
2023-06-14T05:35:33.483Z,1008.51
2023-06-14T05:36:03.460Z,1008.51
2023-06-14T05:36:33.581Z,1008.51
2023-06-14T05:37:03.430Z,1008.51
2023-06-14T05:37:33.427Z,1008.52
2023-06-14T05:38:03.496Z,1008.53
2023-06-14T05:38:33.477Z,1008.54
2023-06-14T05:39:03.415Z,1008.54
2023-06-14T05:39:33.433Z,1008.55
2023-06-14T05:40:03.399Z,1008.57
2023-06-14T05:40:33.398Z,1008.57
2023-06-14T05:41:03.401Z,1008.57
2023-06-14T05:41:33.376Z,1008.56
2023-06-14T05:42:03.373Z,1008.54
2023-06-14T05:42:33.380Z,1008.55
2023-06-14T05:43:03.382Z,1008.55
2023-06-14T05:43:33.381Z,1008.55
2023-06-14T05:44:03.408Z,1008.55
2023-06-14T05:44:33.352Z,1008.56
2023-06-14T05:45:03.473Z,1008.56
2023-06-14T05:45:33.533Z,1008.56
2023-06-14T05:46:03.346Z,1008.56
2023-06-14T05:46:33.343Z,1008.57
2023-06-14T05:47:03.421Z,1008.58
2023-06-14T05:47:33.347Z,1008.59
2023-06-14T05:48:03.460Z,1008.60
2023-06-14T05:48:33.481Z,1008.60
2023-06-14T05:49:03.328Z,1008.60
2023-06-14T05:49:33.313Z,1008.61
2023-06-14T05:50:04.048Z,1008.62
2023-06-14T05:50:33.293Z,1008.61
2023-06-14T05:51:03.284Z,1008.63
2023-06-14T05:51:33.274Z,1008.63
2023-06-14T05:52:03.277Z,1008.65
2023-06-14T05:52:33.276Z,1008.66
2023-06-14T05:53:03.308Z,1008.65
2023-06-14T05:53:33.279Z,1008.66
2023-06-14T05:54:03.278Z,1008.66
2023-06-14T05:54:33.279Z,1008.67
2023-06-14T05:55:03.237Z,1008.68
2023-06-14T05:55:33.230Z,1008.67
2023-06-14T05:56:03.236Z,1008.67
2023-06-14T05:56:33.233Z,1008.67
2023-06-14T05:57:03.223Z,1008.66
2023-06-14T05:57:33.240Z,1008.68
2023-06-14T05:58:03.271Z,1008.70
2023-06-14T05:58:33.202Z,1008.69
2023-06-14T05:59:03.341Z,1008.70
2023-06-14T05:59:33.396Z,1008.70
2023-06-14T06:00:03.255Z,1008.70
2023-06-14T06:00:33.189Z,1008.70
2023-06-14T06:01:03.230Z,1008.73
2023-06-14T06:01:33.166Z,1008.72
2023-06-14T06:02:03.265Z,1008.73
2023-06-14T06:02:33.330Z,1008.74
2023-06-14T06:03:03.284Z,1008.74
2023-06-14T06:03:33.217Z,1008.76
2023-06-14T06:04:03.392Z,1008.77